Terminal Aerodrome Forecast
Issued by NWS Wakefield, VA

Home | Current Version | Previous Version | Text Only | Print | Product List | Glossary On
Versions: 1 2 3 4 5 6 7 8 9 10 11 12 13 14 15 16 17 18 19 20 21 22 23 24 25 26 27 28
272
FTUS41 KAKQ 221149 RRA
TAFSBY
TAF
KSBY 221149Z 2212/2312 05010KT P6SM VCSH OVC003
     FM221500 03008KT P6SM OVC005
     FM222100 03010KT 4SM -RA BR OVC006
     FM230600 06017G25KT 3SM RA BR OVC005=

USA.gov is the U.S. government's official web portal to all federal, state and local government web resources and services.